Time;durP1;ratioP1;P1;durP2;ratioP2;P2;SDS_P1;SDS_P2;PMS_P1;PMS_P2;Temp;Humidity;BMP_temperature;BMP_pressure;BME280_temperature;BME280_humidity;BME280_pressure;Samples;Min_cycle;Max_cycle;Signal;HPM_P1;HPM_P2
2022/06/15 00:02:24;;;;;;;;;;;;;;;;;;5113037;28;904;-66
2022/06/15 00:04:49;;;;;;;;;;;;;;;;;;5114700;28;765;-66
2022/06/15 00:07:15;;;;;;;;;;;;;;;;;;5113171;28;1980;-67
2022/06/15 00:09:40;;;;;;;;;;;;;;;;;;5113324;28;1508;-67
2022/06/15 00:12:07;;;;;;;;;;;;;;;;;;5113891;28;938;-66
2022/06/15 00:14:33;;;;;;;;;;;;;;;;;;5113077;28;1421;-67
2022/06/15 00:16:58;;;;;;;;;;;;;;;;;;5113655;28;923;-66
2022/06/15 00:19:23;;;;;;;;;;;;;;;;;;5113982;28;863;-66
2022/06/15 00:21:48;;;;;;;;;;;;;;;;;;5113432;28;986;-66
2022/06/15 00:24:14;;;;;;;;;;;;;;;;;;5113495;28;1166;-66
2022/06/15 00:26:40;;;;;;;;;;;;;;;;;;5113332;28;1036;-66
2022/06/15 00:29:05;;;;;;;;;;;;;;;;;;5111670;28;1932;-66
2022/06/15 00:31:31;;;;;;;;;;;;;;;;;;5113214;28;919;-66
2022/06/15 00:33:56;;;;;;;;;;;;;;;;;;5112431;28;800;-66
2022/06/15 00:36:22;;;;;;;;;;;;;;;;;;5113020;28;808;-66
2022/06/15 00:38:58;;;;;;;;;;;;;;;;;;5113115;28;887;-66
2022/06/15 00:41:28;;;;;;;;;;;;;;;;;;5111356;28;1312;-66
2022/06/15 00:43:58;;;;;;;;;;;;;;;;;;5111673;28;1202;-67
2022/06/15 00:46:30;;;;;;;;;;;;;;;;;;5112872;28;840;-66
2022/06/15 00:48:57;;;;;;;;;;;;;;;;;;5113193;28;1897;-66
2022/06/15 00:51:24;;;;;;;;;;;;;;;;;;5112251;28;1077;-66
2022/06/15 00:53:49;;;;;;;;;;;;;;;;;;5111556;28;1440;-66
2022/06/15 00:56:14;;;;;;;;;;;;;;;;;;5112215;28;819;-66
2022/06/15 00:58:42;;;;;;;;;;;;;;;;;;5113095;28;841;-66
2022/06/15 01:01:07;;;;;;;;;;;;;;;;;;5112591;28;934;-66
2022/06/15 01:03:33;;;;;;;;;;;;;;;;;;5112759;28;770;-66
2022/06/15 01:06:03;;;;;;;;;;;;;;;;;;5111075;28;1213;-66
2022/06/15 01:08:33;;;;;;;;;;;;;;;;;;5112206;28;1966;-66
2022/06/15 01:11:13;;;;;;;;;;;;;;;;;;5112640;28;835;-66
2022/06/15 01:13:47;;;;;;;;;;;;;;;;;;5112584;28;991;-66
2022/06/15 01:16:30;;;;;;;;;;;;;;;;;;5112023;28;1014;-66
2022/06/15 01:19:01;;;;;;;;;;;;;;;;;;5112489;28;998;-66
2022/06/15 01:21:45;;;;;;;;;;;;;;;;;;5112212;28;969;-66
2022/06/15 01:24:14;;;;;;;;;;;;;;;;;;5112139;28;852;-66
2022/06/15 01:26:48;;;;;;;;;;;;;;;;;;5112180;28;1175;-66
2022/06/15 01:29:39;;;;;;;;;;;;;;;;;;5112205;28;996;-66
2022/06/15 01:32:18;;;;;;;;;;;;;;;;;;5111945;28;824;-67
2022/06/15 01:34:44;;;;;;;;;;;;;;;;;;5112731;28;1061;-67
2022/06/15 01:37:14;;;;;;;;;;;;;;;;;;5112034;28;809;-66
2022/06/15 01:39:47;;;;;;;;;;;;;;;;;;5112804;28;900;-67
2022/06/15 01:42:20;;;;;;;;;;;;;;;;;;5112810;28;970;-66
2022/06/15 01:45:07;;;;;;;;;;;;;;;;;;5112401;28;856;-66
2022/06/15 01:47:33;;;;;;;;;;;;;;;;;;5112031;28;1951;-66
2022/06/15 01:50:11;;;;;;;;;;;;;;;;;;5112413;28;915;-66
2022/06/15 01:52:40;;;;;;;;;;;;;;;;;;5110643;28;1349;-67
2022/06/15 01:55:08;;;;;;;;;;;;;;;;;;5112464;28;800;-66
2022/06/15 01:57:36;;;;;;;;;;;;;;;;;;5111910;28;856;-65
2022/06/15 02:00:06;;;;;;;;;;;;;;;;;;5111648;28;1068;-65
2022/06/15 02:02:50;;;;;;;;;;;;;;;;;;5111650;28;1105;-66
2022/06/15 02:05:22;;;;;;;;;;;;;;;;;;5112020;28;938;-65
2022/06/15 02:08:03;;;;;;;;;;;;;;;;;;5112148;28;1957;-66
2022/06/15 02:10:35;;;;;;;;;;;;;;;;;;5111716;28;958;-65
2022/06/15 02:13:13;;;;;;;;;;;;;;;;;;5111554;28;844;-65
2022/06/15 02:15:42;;;;;;;;;;;;;;;;;;5111337;28;1540;-65
2022/06/15 02:18:09;;;;;;;;;;;;;;;;;;5110244;28;1273;-65
2022/06/15 02:20:38;;;;;;;;;;;;;;;;;;5111426;28;888;-65
2022/06/15 02:23:06;;;;;;;;;;;;;;;;;;5111583;28;919;-65
2022/06/15 02:25:33;;;;;;;;;;;;;;;;;;5110186;28;1228;-65
2022/06/15 02:28:00;;;;;;;;;;;;;;;;;;5110946;28;1914;-65
2022/06/15 02:30:26;;;;;;;;;;;;;;;;;;5110277;28;1328;-65
2022/06/15 02:32:52;;;;;;;;;;;;;;;;;;5111586;28;982;-65
2022/06/15 02:35:18;;;;;;;;;;;;;;;;;;5110045;28;1402;-65
2022/06/15 02:37:45;;;;;;;;;;;;;;;;;;5111073;28;900;-66
2022/06/15 02:40:12;;;;;;;;;;;;;;;;;;5111394;28;860;-66
2022/06/15 02:42:39;;;;;;;;;;;;;;;;;;5111620;28;1119;-66
2022/06/15 02:45:06;;;;;;;;;;;;;;;;;;5110104;28;1276;-66
2022/06/15 02:47:33;;;;;;;;;;;;;;;;;;5110979;28;1964;-67
2022/06/15 02:49:59;;;;;;;;;;;;;;;;;;5112787;28;1440;-66
2022/06/15 02:52:28;;;;;;;;;;;;;;;;;;5113749;28;2027;-67
2022/06/15 02:54:54;;;;;;;;;;;;;;;;;;5115296;28;832;-66
2022/06/15 02:57:20;;;;;;;;;;;;;;;;;;5115438;28;911;-66
2022/06/15 02:59:46;;;;;;;;;;;;;;;;;;5115006;28;982;-64
2022/06/15 03:02:14;;;;;;;;;;;;;;;;;;5113299;28;1296;-66
2022/06/15 03:04:44;;;;;;;;;;;;;;;;;;5114006;28;1439;-67
2022/06/15 03:07:11;;;;;;;;;;;;;;;;;;5113636;28;1933;-66
2022/06/15 03:09:36;;;;;;;;;;;;;;;;;;5114068;28;1175;-67
2022/06/15 03:12:02;;;;;;;;;;;;;;;;;;5115282;28;903;-66
2022/06/15 03:14:27;;;;;;;;;;;;;;;;;;5115211;27;832;-66
2022/06/15 03:16:52;;;;;;;;;;;;;;;;;;5115326;28;1069;-66
2022/06/15 03:19:17;;;;;;;;;;;;;;;;;;5114988;28;808;-66
2022/06/15 03:21:43;;;;;;;;;;;;;;;;;;5115428;28;967;-66
2022/06/15 03:24:08;;;;;;;;;;;;;;;;;;5115142;28;848;-66
2022/06/15 03:26:34;;;;;;;;;;;;;;;;;;5115148;28;1186;-67
2022/06/15 03:29:00;;;;;;;;;;;;;;;;;;5096839;28;1906;-66
2022/06/15 03:31:27;;;;;;;;;;;;;;;;;;5115290;28;777;-66
2022/06/15 03:33:53;;;;;;;;;;;;;;;;;;5113724;28;1395;-67
2022/06/15 03:36:18;;;;;;;;;;;;;;;;;;5114449;28;817;-67
2022/06/15 03:38:43;;;;;;;;;;;;;;;;;;5113088;28;1316;-66
2022/06/15 03:41:09;;;;;;;;;;;;;;;;;;5113505;28;1542;-67
2022/06/15 03:43:34;;;;;;;;;;;;;;;;;;5114519;28;1049;-66
2022/06/15 03:45:59;;;;;;;;;;;;;;;;;;5095956;28;1281;-66
2022/06/15 03:48:24;;;;;;;;;;;;;;;;;;5115467;27;1906;-66
2022/06/15 03:50:50;;;;;;;;;;;;;;;;;;5115547;28;801;-66
2022/06/15 03:53:15;;;;;;;;;;;;;;;;;;5115090;28;1068;-65
2022/06/15 03:55:41;;;;;;;;;;;;;;;;;;5114353;28;1187;-66
2022/06/15 03:58:07;;;;;;;;;;;;;;;;;;5114515;28;840;-66
2022/06/15 04:00:33;;;;;;;;;;;;;;;;;;5113363;28;1222;-66
2022/06/15 04:02:59;;;;;;;;;;;;;;;;;;5116757;28;1277;-69
2022/06/15 04:05:28;;;;;;;;;;;;;;;;;;5118036;28;973;-66
2022/06/15 04:10:38;;;;;;;;;;;;;;;;;;5116226;28;685;-66
2022/06/15 04:13:03;;;;;;;;;;;;;;;;;;5114077;28;997;-66
2022/06/15 04:15:29;;;;;;;;;;;;;;;;;;5112635;28;1169;-67
2022/06/15 04:17:54;;;;;;;;;;;;;;;;;;5112066;28;896;-66
2022/06/15 04:20:33;;;;;;;;;;;;;;;;;;5113580;28;840;-67
2022/06/15 04:22:59;;;;;;;;;;;;;;;;;;5111333;28;1424;-66
2022/06/15 04:25:24;;;;;;;;;;;;;;;;;;5112036;28;1399;-66
2022/06/15 04:27:50;;;;;;;;;;;;;;;;;;5112971;28;1894;-66
2022/06/15 04:30:15;;;;;;;;;;;;;;;;;;5113563;28;836;-66
2022/06/15 04:32:40;;;;;;;;;;;;;;;;;;5113783;27;955;-66
2022/06/15 04:35:06;;;;;;;;;;;;;;;;;;5111746;28;1280;-66
2022/06/15 04:37:31;;;;;;;;;;;;;;;;;;5113510;27;966;-66
2022/06/15 04:39:56;;;;;;;;;;;;;;;;;;5112739;27;1194;-66
2022/06/15 04:42:21;;;;;;;;;;;;;;;;;;5123920;27;1227;-66
2022/06/15 04:44:47;;;;;;;;;;;;;;;;;;5117935;27;1225;-66
2022/06/15 04:47:12;;;;;;;;;;;;;;;;;;5112583;28;1905;-66
2022/06/15 04:49:37;;;;;;;;;;;;;;;;;;5111627;28;859;-66
2022/06/15 04:52:02;;;;;;;;;;;;;;;;;;5112886;28;777;-66
2022/06/15 04:54:28;;;;;;;;;;;;;;;;;;5112862;28;983;-66
2022/06/15 04:56:53;;;;;;;;;;;;;;;;;;5112329;28;845;-66
2022/06/15 04:59:19;;;;;;;;;;;;;;;;;;5113179;28;773;-66
2022/06/15 05:01:44;;;;;;;;;;;;;;;;;;5113321;28;1018;-67
2022/06/15 05:04:09;;;;;;;;;;;;;;;;;;5111571;28;812;-66
2022/06/15 05:06:36;;;;;;;;;;;;;;;;;;5111616;28;1369;-67
2022/06/15 05:09:03;;;;;;;;;;;;;;;;;;5112772;28;1913;-66
2022/06/15 05:11:28;;;;;;;;;;;;;;;;;;5113104;28;1006;-67
2022/06/15 05:13:54;;;;;;;;;;;;;;;;;;5113081;28;935;-67
2022/06/15 05:16:20;;;;;;;;;;;;;;;;;;5094519;28;1232;-66
2022/06/15 05:18:46;;;;;;;;;;;;;;;;;;5113217;28;1049;-66
2022/06/15 05:21:12;;;;;;;;;;;;;;;;;;5093822;28;1313;-67
2022/06/15 05:23:37;;;;;;;;;;;;;;;;;;5113358;28;884;-66
2022/06/15 05:26:03;;;;;;;;;;;;;;;;;;5112361;28;951;-66
2022/06/15 05:28:28;;;;;;;;;;;;;;;;;;5112013;28;1913;-67
2022/06/15 05:31:08;;;;;;;;;;;;;;;;;;5112352;28;785;-66
2022/06/15 05:33:33;;;;;;;;;;;;;;;;;;5112829;28;847;-67
2022/06/15 05:36:07;;;;;;;;;;;;;;;;;;5110737;28;1308;-66
2022/06/15 05:38:32;;;;;;;;;;;;;;;;;;5112642;28;836;-67
2022/06/15 05:40:58;;;;;;;;;;;;;;;;;;5111149;28;910;-66
2022/06/15 05:43:23;;;;;;;;;;;;;;;;;;5112679;28;958;-67
2022/06/15 05:45:48;;;;;;;;;;;;;;;;;;5110618;28;1301;-67
2022/06/15 05:48:13;;;;;;;;;;;;;;;;;;5111836;28;1897;-66
2022/06/15 05:50:39;;;;;;;;;;;;;;;;;;5112214;28;883;-66
2022/06/15 05:53:04;;;;;;;;;;;;;;;;;;5111279;28;899;-66
2022/06/15 05:55:29;;;;;;;;;;;;;;;;;;5110659;28;887;-66
2022/06/15 05:57:54;;;;;;;;;;;;;;;;;;5111817;28;808;-66
2022/06/15 06:00:21;;;;;;;;;;;;;;;;;;5110219;28;996;-66
2022/06/15 06:02:46;;;;;;;;;;;;;;;;;;5110438;28;1367;-66
2022/06/15 06:05:11;;;;;;;;;;;;;;;;;;5110404;28;1404;-66
2022/06/15 06:07:37;;;;;;;;;;;;;;;;;;5112028;28;1977;-66
2022/06/15 06:10:02;;;;;;;;;;;;;;;;;;5110853;28;816;-66
2022/06/15 06:12:27;;;;;;;;;;;;;;;;;;5112213;28;990;-65
2022/06/15 06:14:53;;;;;;;;;;;;;;;;;;5109977;28;1206;-66
2022/06/15 06:17:19;;;;;;;;;;;;;;;;;;5109893;28;1210;-66
2022/06/15 06:19:44;;;;;;;;;;;;;;;;;;5112265;28;915;-65
2022/06/15 06:22:09;;;;;;;;;;;;;;;;;;5112141;28;797;-65
2022/06/15 06:24:34;;;;;;;;;;;;;;;;;;5111601;28;892;-65
2022/06/15 06:27:01;;;;;;;;;;;;;;;;;;5111218;28;1983;-65
2022/06/15 06:29:28;;;;;;;;;;;;;;;;;;5111283;28;886;-65
2022/06/15 06:31:53;;;;;;;;;;;;;;;;;;5111744;28;983;-65
2022/06/15 06:34:18;;;;;;;;;;;;;;;;;;5111830;28;891;-65
2022/06/15 06:36:45;;;;;;;;;;;;;;;;;;5116760;28;1250;-64
2022/06/15 06:39:29;;;;;;;;;;;;;;;;;;5114898;27;1123;-66
2022/06/15 06:41:56;;;;;;;;;;;;;;;;;;5116471;28;1148;-65
2022/06/15 06:44:22;;;;;;;;;;;;;;;;;;5113753;28;1222;-65
2022/06/15 06:46:48;;;;;;;;;;;;;;;;;;5132851;27;935;-65
2022/06/15 06:49:13;;;;;;;;;;;;;;;;;;5132399;27;1909;-66
2022/06/15 06:51:39;;;;;;;;;;;;;;;;;;5132349;27;958;-66
2022/06/15 06:54:06;;;;;;;;;;;;;;;;;;5129723;28;1718;-66
2022/06/15 06:56:31;;;;;;;;;;;;;;;;;;5131517;27;789;-65
2022/06/15 06:58:56;;;;;;;;;;;;;;;;;;5131654;27;1021;-66
2022/06/15 07:01:22;;;;;;;;;;;;;;;;;;5129753;28;1284;-66
2022/06/15 07:03:47;;;;;;;;;;;;;;;;;;5131407;27;917;-66
2022/06/15 07:06:12;;;;;;;;;;;;;;;;;;5130929;27;872;-65
2022/06/15 07:08:38;;;;;;;;;;;;;;;;;;5110131;28;1973;-66
2022/06/15 07:11:10;;;;;;;;;;;;;;;;;;5129645;27;860;-66
2022/06/15 07:13:36;;;;;;;;;;;;;;;;;;5130191;27;1296;-66
2022/06/15 07:16:05;;;;;;;;;;;;;;;;;;5129459;28;1217;-66
2022/06/15 07:18:30;;;;;;;;;;;;;;;;;;5131086;27;1065;-66
2022/06/15 07:21:00;;;;;;;;;;;;;;;;;;5129960;27;899;-66
2022/06/15 07:23:25;;;;;;;;;;;;;;;;;;5130707;27;1010;-66
2022/06/15 07:25:50;;;;;;;;;;;;;;;;;;5131351;28;761;-65
2022/06/15 07:28:15;;;;;;;;;;;;;;;;;;5130903;28;1905;-66
2022/06/15 07:30:41;;;;;;;;;;;;;;;;;;5130421;28;903;-65
2022/06/15 07:33:07;;;;;;;;;;;;;;;;;;5112367;28;1347;-66
2022/06/15 07:35:33;;;;;;;;;;;;;;;;;;5133194;27;812;-66
2022/06/15 07:37:58;;;;;;;;;;;;;;;;;;5134978;27;844;-66
2022/06/15 07:40:24;;;;;;;;;;;;;;;;;;5134738;27;859;-65
2022/06/15 07:42:50;;;;;;;;;;;;;;;;;;5135226;27;856;-66
2022/06/15 07:45:17;;;;;;;;;;;;;;;;;;5134546;27;883;-65
2022/06/15 07:50:27;;;;;;;;;;;;;;;;;;5134967;27;627;-66
2022/06/15 07:52:53;;;;;;;;;;;;;;;;;;5134602;27;1104;-66
2022/06/15 07:55:21;;;;;;;;;;;;;;;;;;5132030;27;1249;-66
2022/06/15 07:57:47;;;;;;;;;;;;;;;;;;5134614;27;901;-66
2022/06/15 08:00:13;;;;;;;;;;;;;;;;;;5132469;27;1099;-66
2022/06/15 08:02:38;;;;;;;;;;;;;;;;;;5132876;27;1169;-66
2022/06/15 08:05:04;;;;;;;;;;;;;;;;;;5133776;27;832;-66
2022/06/15 08:07:29;;;;;;;;;;;;;;;;;;5134713;27;2195;-66
2022/06/15 08:09:54;;;;;;;;;;;;;;;;;;5133220;27;1328;-66
2022/06/15 08:12:23;;;;;;;;;;;;;;;;;;5134440;27;804;-66
2022/06/15 08:14:53;;;;;;;;;;;;;;;;;;5133422;27;1382;-66
2022/06/15 08:17:41;;;;;;;;;;;;;;;;;;5134333;27;887;-66
2022/06/15 08:20:14;;;;;;;;;;;;;;;;;;5121718;27;1270;-66
2022/06/15 08:22:41;;;;;;;;;;;;;;;;;;5134888;27;792;-65
2022/06/15 08:25:09;;;;;;;;;;;;;;;;;;5133582;27;896;-65
2022/06/15 08:27:35;;;;;;;;;;;;;;;;;;5133450;27;1902;-65
2022/06/15 08:30:00;;;;;;;;;;;;;;;;;;5133425;27;946;-66
2022/06/15 08:32:25;;;;;;;;;;;;;;;;;;5114316;27;1151;-66
2022/06/15 08:34:51;;;;;;;;;;;;;;;;;;5131902;27;1218;-66
2022/06/15 08:37:17;;;;;;;;;;;;;;;;;;5132583;27;957;-66
2022/06/15 08:39:43;;;;;;;;;;;;;;;;;;5133493;27;840;-66
2022/06/15 08:42:17;;;;;;;;;;;;;;;;;;5132762;27;915;-65
2022/06/15 08:44:45;;;;;;;;;;;;;;;;;;5133323;27;836;-67
2022/06/15 08:47:29;;;;;;;;;;;;;;;;;;5132703;27;1963;-67
2022/06/15 08:49:58;;;;;;;;;;;;;;;;;;5133407;27;907;-66
2022/06/15 08:52:29;;;;;;;;;;;;;;;;;;5132724;27;844;-66
2022/06/15 08:54:57;;;;;;;;;;;;;;;;;;5133016;27;876;-66
2022/06/15 08:57:36;;;;;;;;;;;;;;;;;;5132533;27;773;-67
2022/06/15 09:00:09;;;;;;;;;;;;;;;;;;5132948;27;813;-66
2022/06/15 09:02:41;;;;;;;;;;;;;;;;;;5133280;27;853;-66
2022/06/15 09:05:18;;;;;;;;;;;;;;;;;;5131332;27;1288;-66
2022/06/15 09:07:43;;;;;;;;;;;;;;;;;;5131609;27;1956;-66
2022/06/15 09:10:28;;;;;;;;;;;;;;;;;;5132391;27;894;-66
2022/06/15 09:13:22;;;;;;;;;;;;;;;;;;5131920;27;1104;-66
2022/06/15 09:15:51;;;;;;;;;;;;;;;;;;5133097;27;903;-66
2022/06/15 09:18:29;;;;;;;;;;;;;;;;;;5132075;27;861;-66
2022/06/15 09:21:02;;;;;;;;;;;;;;;;;;5132747;27;824;-66
2022/06/15 09:23:30;;;;;;;;;;;;;;;;;;5130941;27;1495;-67
2022/06/15 09:26:02;;;;;;;;;;;;;;;;;;5132661;27;899;-67
2022/06/15 09:28:36;;;;;;;;;;;;;;;;;;5132089;27;1913;-66
2022/06/15 09:31:06;;;;;;;;;;;;;;;;;;5132767;27;851;-66
2022/06/15 09:33:35;;;;;;;;;;;;;;;;;;5132517;27;899;-66
2022/06/15 09:36:07;;;;;;;;;;;;;;;;;;5133034;27;1054;-66
2022/06/15 09:38:32;;;;;;;;;;;;;;;;;;5132647;27;883;-66
2022/06/15 09:41:01;;;;;;;;;;;;;;;;;;5132808;27;895;-67
2022/06/15 09:43:35;;;;;;;;;;;;;;;;;;5132570;27;721;-66
2022/06/15 09:46:04;;;;;;;;;;;;;;;;;;5134713;27;812;-66
2022/06/15 09:48:42;;;;;;;;;;;;;;;;;;5131972;27;1968;-66
2022/06/15 09:51:11;;;;;;;;;;;;;;;;;;5131043;27;904;-66
2022/06/15 09:53:36;;;;;;;;;;;;;;;;;;5130797;27;1261;-66
2022/06/15 09:56:07;;;;;;;;;;;;;;;;;;5132225;27;923;-66
2022/06/15 09:58:47;;;;;;;;;;;;;;;;;;5132538;27;852;-66
2022/06/15 10:01:13;;;;;;;;;;;;;;;;;;5132574;27;804;-65
2022/06/15 10:03:44;;;;;;;;;;;;;;;;;;5132003;27;1042;-65
2022/06/15 10:06:12;;;;;;;;;;;;;;;;;;5133290;27;855;-66
2022/06/15 10:08:38;;;;;;;;;;;;;;;;;;5131223;27;1894;-65
2022/06/15 10:11:05;;;;;;;;;;;;;;;;;;5132287;27;1061;-66
2022/06/15 10:13:35;;;;;;;;;;;;;;;;;;5132887;27;982;-65
2022/06/15 10:16:23;;;;;;;;;;;;;;;;;;5130714;27;1154;-65
2022/06/15 10:18:51;;;;;;;;;;;;;;;;;;5123783;27;1102;-66
2022/06/15 10:21:17;;;;;;;;;;;;;;;;;;5131166;27;1189;-67
2022/06/15 10:23:49;;;;;;;;;;;;;;;;;;5131103;27;1320;-66
2022/06/15 10:26:36;;;;;;;;;;;;;;;;;;5133001;27;852;-65
2022/06/15 10:29:22;;;;;;;;;;;;;;;;;;5132137;27;1905;-66
2022/06/15 10:32:07;;;;;;;;;;;;;;;;;;5132391;27;876;-66
2022/06/15 10:34:35;;;;;;;;;;;;;;;;;;5130962;27;1282;-66
2022/06/15 10:37:05;;;;;;;;;;;;;;;;;;5131814;27;1009;-66
2022/06/15 10:39:32;;;;;;;;;;;;;;;;;;5132334;27;841;-66
2022/06/15 10:42:05;;;;;;;;;;;;;;;;;;5131798;27;872;-66
2022/06/15 10:44:32;;;;;;;;;;;;;;;;;;5131332;27;899;-66
2022/06/15 10:47:18;;;;;;;;;;;;;;;;;;5131435;27;828;-66
2022/06/15 10:49:45;;;;;;;;;;;;;;;;;;5131643;27;911;-66
2022/06/15 10:52:17;;;;;;;;;;;;;;;;;;5131018;27;910;-66
2022/06/15 11:03:07;;;;;;;;;;;;;;;;;;5131969;28;605;-66
2022/06/15 11:05:33;;;;;;;;;;;;;;;;;;5131223;27;816;-66
2022/06/15 11:08:03;;;;;;;;;;;;;;;;;;5130852;27;1897;-66
2022/06/15 11:10:34;;;;;;;;;;;;;;;;;;5132695;27;966;-66
2022/06/15 11:13:02;;;;;;;;;;;;;;;;;;5133815;27;820;-66
2022/06/15 11:18:26;;;;;;;;;;;;;;;;;;5135008;27;737;-66
2022/06/15 11:20:52;;;;;;;;;;;;;;;;;;5134865;27;892;-66
2022/06/15 11:23:43;;;;;;;;;;;;;;;;;;5134469;27;883;-66
2022/06/15 11:29:08;;;;;;;;;;;;;;;;;;5134690;27;1979;-66
2022/06/15 11:31:33;;;;;;;;;;;;;;;;;;5134855;27;816;-66
2022/06/15 11:34:01;;;;;;;;;;;;;;;;;;5133924;27;1029;-66
2022/06/15 11:36:32;;;;;;;;;;;;;;;;;;5135560;27;1010;-66
2022/06/15 11:39:00;;;;;;;;;;;;;;;;;;5135235;27;871;-66
2022/06/15 11:41:40;;;;;;;;;;;;;;;;;;5134823;27;1002;-66
2022/06/15 11:44:19;;;;;;;;;;;;;;;;;;5133040;27;1427;-66
2022/06/15 11:47:05;;;;;;;;;;;;;;;;;;5134914;27;899;-66
2022/06/15 11:49:50;;;;;;;;;;;;;;;;;;5134711;27;1918;-67
2022/06/15 11:52:41;;;;;;;;;;;;;;;;;;5133586;27;1375;-65
2022/06/15 11:55:10;;;;;;;;;;;;;;;;;;5133188;27;1224;-65
2022/06/15 11:57:41;;;;;;;;;;;;;;;;;;5132347;27;1170;-65
2022/06/15 12:00:13;;;;;;;;;;;;;;;;;;5132901;27;1360;-67
2022/06/15 12:02:44;;;;;;;;;;;;;;;;;;5133740;27;963;-67
2022/06/15 12:05:35;;;;;;;;;;;;;;;;;;5133755;27;899;-67
2022/06/15 12:08:01;;;;;;;;;;;;;;;;;;5130598;27;1893;-67
2022/06/15 12:10:34;;;;;;;;;;;;;;;;;;5132077;27;1162;-68
2022/06/15 12:13:05;;;;;;;;;;;;;;;;;;5133902;27;985;-67
2022/06/15 12:15:39;;;;;;;;;;;;;;;;;;5131941;27;1249;-67
2022/06/15 12:18:10;;;;;;;;;;;;;;;;;;5133914;27;840;-67
2022/06/15 12:20:53;;;;;;;;;;;;;;;;;;5133471;27;907;-67
2022/06/15 12:23:27;;;;;;;;;;;;;;;;;;5133596;27;762;-67
2022/06/15 12:26:02;;;;;;;;;;;;;;;;;;5133496;27;955;-67
2022/06/15 12:28:46;;;;;;;;;;;;;;;;;;5131105;27;1988;-66
2022/06/15 12:31:33;;;;;;;;;;;;;;;;;;5133336;27;922;-66
2022/06/15 12:34:10;;;;;;;;;;;;;;;;;;5134111;27;986;-67
2022/06/15 12:36:41;;;;;;;;;;;;;;;;;;5131679;27;1242;-67
2022/06/15 12:39:09;;;;;;;;;;;;;;;;;;5133549;27;821;-66
2022/06/15 12:44:27;;;;;;;;;;;;;;;;;;5132892;27;857;-67
2022/06/15 12:46:53;;;;;;;;;;;;;;;;;;5133648;27;836;-67
2022/06/15 12:49:37;;;;;;;;;;;;;;;;;;5131220;27;1993;-67
2022/06/15 12:52:06;;;;;;;;;;;;;;;;;;5131780;27;1265;-66
2022/06/15 12:54:50;;;;;;;;;;;;;;;;;;5133279;27;958;-67
2022/06/15 12:57:33;;;;;;;;;;;;;;;;;;5132861;27;848;-67
2022/06/15 13:00:19;;;;;;;;;;;;;;;;;;5133186;27;985;-66
2022/06/15 13:02:59;;;;;;;;;;;;;;;;;;5132271;27;1088;-67
2022/06/15 13:05:29;;;;;;;;;;;;;;;;;;5130760;27;1180;-67
2022/06/15 13:08:24;;;;;;;;;;;;;;;;;;5133175;27;1894;-67
2022/06/15 13:10:52;;;;;;;;;;;;;;;;;;5132578;27;871;-66
2022/06/15 13:13:30;;;;;;;;;;;;;;;;;;5130852;27;1171;-66
2022/06/15 13:15:59;;;;;;;;;;;;;;;;;;5132758;27;848;-66
2022/06/15 13:18:43;;;;;;;;;;;;;;;;;;5132445;27;883;-66
2022/06/15 13:21:09;;;;;;;;;;;;;;;;;;5132548;27;860;-67
2022/06/15 13:23:39;;;;;;;;;;;;;;;;;;5133435;27;974;-67
2022/06/15 13:26:07;;;;;;;;;;;;;;;;;;5132514;27;883;-67
2022/06/15 13:28:34;;;;;;;;;;;;;;;;;;5132366;27;1909;-66
2022/06/15 13:31:02;;;;;;;;;;;;;;;;;;5132640;27;970;-67
2022/06/15 13:34:00;;;;;;;;;;;;;;;;;;5130537;27;1832;-67
2022/06/15 13:36:26;;;;;;;;;;;;;;;;;;5097895;27;915;-66
2022/06/15 13:38:53;;;;;;;;;;;;;;;;;;5132381;27;1136;-66
2022/06/15 13:41:23;;;;;;;;;;;;;;;;;;5132452;27;832;-67
2022/06/15 13:43:49;;;;;;;;;;;;;;;;;;5132364;27;906;-67
2022/06/15 13:46:26;;;;;;;;;;;;;;;;;;5132369;27;827;-67
2022/06/15 13:48:53;;;;;;;;;;;;;;;;;;5130326;27;1947;-66
2022/06/15 13:51:24;;;;;;;;;;;;;;;;;;5131412;27;753;-66
2022/06/15 13:54:02;;;;;;;;;;;;;;;;;;5132228;27;848;-66
2022/06/15 13:56:28;;;;;;;;;;;;;;;;;;5131663;27;757;-66
2022/06/15 13:58:53;;;;;;;;;;;;;;;;;;5130383;27;1320;-66
2022/06/15 14:01:37;;;;;;;;;;;;;;;;;;5131544;27;824;-66
2022/06/15 14:04:05;;;;;;;;;;;;;;;;;;5131799;27;946;-67
2022/06/15 14:06:42;;;;;;;;;;;;;;;;;;5131554;27;957;-67
2022/06/15 14:09:26;;;;;;;;;;;;;;;;;;5131188;27;1959;-66
2022/06/15 14:12:03;;;;;;;;;;;;;;;;;;5131993;27;970;-67
2022/06/15 14:14:47;;;;;;;;;;;;;;;;;;5131430;27;895;-67
2022/06/15 14:17:18;;;;;;;;;;;;;;;;;;5131834;27;868;-67
2022/06/15 14:20:00;;;;;;;;;;;;;;;;;;5130453;27;1206;-67
2022/06/15 14:22:25;;;;;;;;;;;;;;;;;;5131442;27;773;-67
2022/06/15 14:25:01;;;;;;;;;;;;;;;;;;5125432;27;1194;-67
2022/06/15 14:27:28;;;;;;;;;;;;;;;;;;5112383;27;1964;-67
2022/06/15 14:29:54;;;;;;;;;;;;;;;;;;5110353;28;1151;-67
2022/06/15 14:32:24;;;;;;;;;;;;;;;;;;5107989;28;1156;-67
2022/06/15 14:34:49;;;;;;;;;;;;;;;;;;5109533;28;1318;-67
2022/06/15 14:37:18;;;;;;;;;;;;;;;;;;5112182;28;1143;-67
2022/06/15 14:39:45;;;;;;;;;;;;;;;;;;5110878;28;1152;-67
2022/06/15 14:42:23;;;;;;;;;;;;;;;;;;5110793;28;828;-67
2022/06/15 14:44:49;;;;;;;;;;;;;;;;;;5113149;28;899;-67
2022/06/15 14:47:17;;;;;;;;;;;;;;;;;;5122963;27;1159;-67
2022/06/15 14:49:51;;;;;;;;;;;;;;;;;;5134466;27;1267;-67
2022/06/15 14:52:25;;;;;;;;;;;;;;;;;;5129109;27;1178;-67
2022/06/15 14:54:52;;;;;;;;;;;;;;;;;;5136222;27;940;-67
2022/06/15 14:57:25;;;;;;;;;;;;;;;;;;5135886;27;872;-67
2022/06/15 14:59:51;;;;;;;;;;;;;;;;;;5134731;27;1130;-67
2022/06/15 15:02:17;;;;;;;;;;;;;;;;;;5135569;27;800;-66
2022/06/15 15:04:46;;;;;;;;;;;;;;;;;;5135805;27;997;-67
2022/06/15 15:10:23;;;;;;;;;;;;;;;;;;5135389;27;613;-66
2022/06/15 15:12:48;;;;;;;;;;;;;;;;;;5135974;27;810;-67
2022/06/15 15:15:14;;;;;;;;;;;;;;;;;;5135340;27;880;-66
2022/06/15 15:17:47;;;;;;;;;;;;;;;;;;5134592;27;818;-66
2022/06/15 15:20:28;;;;;;;;;;;;;;;;;;5134759;27;891;-66
2022/06/15 15:22:54;;;;;;;;;;;;;;;;;;5134136;27;899;-66
2022/06/15 15:25:20;;;;;;;;;;;;;;;;;;5133472;27;800;-67
2022/06/15 15:36:06;;;;;;;;;;;;;;;;;;5135008;27;658;-66
2022/06/15 15:38:32;;;;;;;;;;;;;;;;;;5133191;27;899;-66
2022/06/15 15:40:58;;;;;;;;;;;;;;;;;;5133086;27;828;-66
2022/06/15 15:43:25;;;;;;;;;;;;;;;;;;5132720;27;1371;-66
2022/06/15 15:45:51;;;;;;;;;;;;;;;;;;5134980;27;845;-66
2022/06/15 15:48:16;;;;;;;;;;;;;;;;;;5132954;27;1959;-66
2022/06/15 15:50:41;;;;;;;;;;;;;;;;;;5116246;27;1411;-66
2022/06/15 15:53:07;;;;;;;;;;;;;;;;;;5134188;27;825;-66
2022/06/15 15:55:32;;;;;;;;;;;;;;;;;;5135040;27;914;-66
2022/06/15 15:57:59;;;;;;;;;;;;;;;;;;5135336;27;836;-66
2022/06/15 16:00:26;;;;;;;;;;;;;;;;;;5135209;27;761;-67
2022/06/15 16:02:53;;;;;;;;;;;;;;;;;;5135041;27;931;-66
2022/06/15 16:05:19;;;;;;;;;;;;;;;;;;5134554;27;903;-66
2022/06/15 16:07:45;;;;;;;;;;;;;;;;;;5133836;27;1902;-67
2022/06/15 16:10:12;;;;;;;;;;;;;;;;;;5135160;27;824;-66
2022/06/15 16:12:38;;;;;;;;;;;;;;;;;;5136381;27;1025;-66
2022/06/15 16:15:04;;;;;;;;;;;;;;;;;;5135373;27;895;-66
2022/06/15 16:17:30;;;;;;;;;;;;;;;;;;5134321;27;1200;-66
2022/06/15 16:19:56;;;;;;;;;;;;;;;;;;5136282;27;765;-66
2022/06/15 16:22:23;;;;;;;;;;;;;;;;;;5132809;27;1189;-67
2022/06/15 16:24:50;;;;;;;;;;;;;;;;;;5134297;27;809;-67
2022/06/15 16:27:15;;;;;;;;;;;;;;;;;;5134003;27;1028;-67
2022/06/15 16:29:42;;;;;;;;;;;;;;;;;;5133227;27;1909;-66
2022/06/15 16:32:09;;;;;;;;;;;;;;;;;;5137560;27;848;-66
2022/06/15 16:34:35;;;;;;;;;;;;;;;;;;5134690;27;887;-67
2022/06/15 16:37:01;;;;;;;;;;;;;;;;;;5133279;27;1299;-66
2022/06/15 16:39:26;;;;;;;;;;;;;;;;;;5132986;27;1240;-66
2022/06/15 16:41:52;;;;;;;;;;;;;;;;;;5134289;27;872;-66
2022/06/15 16:44:17;;;;;;;;;;;;;;;;;;5132620;27;820;-66
2022/06/15 16:46:42;;;;;;;;;;;;;;;;;;5135058;27;996;-65
2022/06/15 16:49:08;;;;;;;;;;;;;;;;;;5132818;27;1963;-66
2022/06/15 16:51:33;;;;;;;;;;;;;;;;;;5134046;27;769;-66
2022/06/15 16:54:01;;;;;;;;;;;;;;;;;;5134339;27;824;-66
2022/06/15 16:56:30;;;;;;;;;;;;;;;;;;5132536;27;907;-66
2022/06/15 16:58:56;;;;;;;;;;;;;;;;;;5134206;27;835;-67
2022/06/15 17:01:22;;;;;;;;;;;;;;;;;;5132919;27;800;-66
2022/06/15 17:03:47;;;;;;;;;;;;;;;;;;5133502;27;785;-66
2022/06/15 17:06:12;;;;;;;;;;;;;;;;;;5133143;27;907;-66
2022/06/15 17:08:39;;;;;;;;;;;;;;;;;;5130737;27;1901;-66
2022/06/15 17:11:05;;;;;;;;;;;;;;;;;;5133303;27;879;-66
2022/06/15 17:13:31;;;;;;;;;;;;;;;;;;5132708;27;844;-67
2022/06/15 17:15:57;;;;;;;;;;;;;;;;;;5131773;27;1369;-67
2022/06/15 17:18:22;;;;;;;;;;;;;;;;;;5132451;27;942;-66
2022/06/15 17:20:51;;;;;;;;;;;;;;;;;;5131608;27;824;-66
2022/06/15 17:23:18;;;;;;;;;;;;;;;;;;5130843;27;1320;-66
2022/06/15 17:25:44;;;;;;;;;;;;;;;;;;5131623;27;1209;-66
2022/06/15 17:28:09;;;;;;;;;;;;;;;;;;5132271;27;1981;-66
2022/06/15 17:30:34;;;;;;;;;;;;;;;;;;5131074;27;1051;-66
2022/06/15 17:33:00;;;;;;;;;;;;;;;;;;5132338;27;1040;-66
2022/06/15 17:35:25;;;;;;;;;;;;;;;;;;5131923;27;1057;-66
2022/06/15 17:37:50;;;;;;;;;;;;;;;;;;5132995;27;875;-66
2022/06/15 17:40:15;;;;;;;;;;;;;;;;;;5130682;27;1305;-66
2022/06/15 17:42:42;;;;;;;;;;;;;;;;;;5132832;27;911;-67
2022/06/15 17:45:09;;;;;;;;;;;;;;;;;;5132393;27;765;-67
2022/06/15 17:47:35;;;;;;;;;;;;;;;;;;5130506;27;1964;-66
2022/06/15 17:50:00;;;;;;;;;;;;;;;;;;5132326;27;887;-66
2022/06/15 17:52:25;;;;;;;;;;;;;;;;;;5130004;27;1193;-66
2022/06/15 17:54:50;;;;;;;;;;;;;;;;;;5132859;27;904;-66
2022/06/15 17:57:16;;;;;;;;;;;;;;;;;;5131216;27;975;-65
2022/06/15 17:59:41;;;;;;;;;;;;;;;;;;5130997;27;833;-66
2022/06/15 18:02:09;;;;;;;;;;;;;;;;;;5113752;27;1275;-66